Time;durP1;ratioP1;P1;durP2;ratioP2;P2;SDS_P1;SDS_P2;PMS_P1;PMS_P2;Temp;Humidity;BMP_temperature;BMP_pressure;BME280_temperature;BME280_humidity;BME280_pressure;Samples;Min_cycle;Max_cycle;Signal;HPM_P1;HPM_P2
2022/04/11 03:32:28;;;;;;;18.93;17.30;;;2.80;99.90;;;;;;6207818;22;20554;-74
2022/04/11 03:34:55;;;;;;;18.50;17.30;;;2.90;99.90;;;;;;6213108;23;20387;-75
2022/04/11 03:37:22;;;;;;;19.03;17.50;;;2.90;99.90;;;;;;6212998;23;20407;-74
2022/04/11 03:39:49;;;;;;;18.20;16.80;;;2.80;99.90;;;;;;6212520;23;20411;-74
2022/04/11 03:42:15;;;;;;;19.03;17.73;;;2.80;99.90;;;;;;6213103;23;20410;-74
2022/04/11 03:44:42;;;;;;;19.87;18.27;;;2.70;99.90;;;;;;6213395;23;20417;-73
2022/04/11 03:47:09;;;;;;;18.70;17.50;;;2.70;99.90;;;;;;6212936;23;20465;-73
2022/04/11 03:49:37;;;;;;;19.67;18.20;;;2.70;99.90;;;;;;6213155;23;20401;-73
2022/04/11 03:52:05;;;;;;;19.40;17.80;;;2.70;99.90;;;;;;6213322;23;20412;-74
2022/04/11 03:54:31;;;;;;;18.23;16.93;;;2.70;99.90;;;;;;6212520;23;20436;-74
2022/04/11 03:56:58;;;;;;;19.67;18.07;;;2.60;99.90;;;;;;6212986;23;20417;-75
2022/04/11 03:59:25;;;;;;;18.20;16.97;;;2.60;99.90;;;;;;6213695;23;20782;-75
2022/04/11 04:01:51;;;;;;;19.97;18.60;;;2.50;99.90;;;;;;6213829;23;20922;-75
2022/04/11 04:04:18;;;;;;;21.23;19.17;;;2.50;99.90;;;;;;6214163;23;20767;-75
2022/04/11 04:06:46;;;;;;;21.53;19.90;;;2.50;99.90;;;;;;6213826;23;20725;-75
2022/04/11 04:09:13;;;;;;;19.37;18.07;;;2.50;99.90;;;;;;6213801;23;20472;-75
2022/04/11 04:11:39;;;;;;;20.43;18.83;;;2.50;99.90;;;;;;6213955;23;20417;-74
2022/04/11 04:14:06;;;;;;;19.60;18.17;;;2.40;99.90;;;;;;6214118;23;20439;-75
2022/04/11 04:16:33;;;;;;;21.27;19.70;;;2.30;99.90;;;;;;6213787;23;20407;-76
2022/04/11 04:19:00;;;;;;;20.37;18.97;;;2.30;99.90;;;;;;6212769;23;20946;-76
2022/04/11 04:21:26;;;;;;;19.03;17.73;;;2.30;99.90;;;;;;6213161;23;20415;-75
2022/04/11 04:23:54;;;;;;;21.43;19.63;;;2.20;99.90;;;;;;6213543;23;20409;-74
2022/04/11 04:26:21;;;;;;;20.37;18.97;;;2.30;99.90;;;;;;6213589;23;20919;-76
2022/04/11 04:28:47;;;;;;;22.73;20.77;;;2.30;99.90;;;;;;6213344;23;20402;-75
2022/04/11 04:31:14;;;;;;;20.43;18.83;;;2.30;99.90;;;;;;6212735;23;20447;-76
2022/04/11 04:33:41;;;;;;;21.10;19.50;;;2.30;99.90;;;;;;6213387;23;20462;-76
2022/04/11 04:36:07;;;;;;;22.53;20.27;;;2.30;99.90;;;;;;6213941;23;20404;-75
2022/04/11 04:38:34;;;;;;;22.50;20.37;;;2.20;99.90;;;;;;6212991;23;20452;-75
2022/04/11 04:41:02;;;;;;;22.07;20.43;;;2.10;99.90;;;;;;6212918;23;20907;-76
2022/04/11 04:43:29;;;;;;;24.40;22.10;;;2.10;99.90;;;;;;6210171;23;21222;-75
2022/04/11 04:45:55;;;;;;;22.90;21.00;;;2.10;99.90;;;;;;6209835;23;20476;-76
2022/04/11 04:48:22;;;;;;;22.00;19.80;;;2.10;99.90;;;;;;6210063;23;20416;-75
2022/04/11 04:50:49;;;;;;;22.23;19.97;;;2.00;99.90;;;;;;6210268;23;20417;-76
2022/04/11 04:53:15;;;;;;;23.67;21.57;;;2.00;99.90;;;;;;6212269;23;20408;-76
2022/04/11 04:55:42;;;;;;;21.80;20.10;;;2.00;99.90;;;;;;6213513;23;20468;-75
2022/04/11 04:58:10;;;;;;;22.07;20.47;;;2.00;99.90;;;;;;6213503;23;20442;-76
2022/04/11 05:00:37;;;;;;;22.83;20.93;;;1.90;99.90;;;;;;6213655;23;20418;-75
2022/04/11 05:03:03;;;;;;;23.40;21.27;;;1.80;99.90;;;;;;6214106;23;20413;-74
2022/04/11 05:05:30;;;;;;;22.40;20.50;;;1.70;99.90;;;;;;6213192;23;20426;-74
2022/04/11 05:07:57;;;;;;;22.90;20.77;;;1.70;99.90;;;;;;6213394;23;20805;-74
2022/04/11 05:10:24;;;;;;;22.30;20.50;;;1.80;99.90;;;;;;6213120;23;20913;-74
2022/04/11 05:12:50;;;;;;;21.53;19.50;;;1.80;99.90;;;;;;6214653;23;20428;-76
2022/04/11 05:15:18;;;;;;;24.20;22.03;;;1.70;99.90;;;;;;6213332;23;20820;-76
2022/04/11 05:17:45;;;;;;;21.27;19.27;;;1.80;99.90;;;;;;6214008;23;20772;-76
2022/04/11 05:20:12;;;;;;;23.33;21.27;;;1.80;99.90;;;;;;6213974;23;20435;-77
2022/04/11 05:22:39;;;;;;;26.73;21.60;;;1.80;99.90;;;;;;6213860;23;20415;-76
2022/04/11 05:25:06;;;;;;;22.53;20.30;;;1.70;99.90;;;;;;6213568;23;20901;-75
2022/04/11 05:27:34;;;;;;;22.20;20.50;;;1.80;99.90;;;;;;6213827;23;20770;-76
2022/04/11 05:30:01;;;;;;;23.70;21.40;;;1.90;99.90;;;;;;6213546;23;20429;-75
2022/04/11 05:32:29;;;;;;;22.97;20.93;;;1.90;99.90;;;;;;6213124;23;20694;-75
2022/04/11 05:34:56;;;;;;;24.00;22.00;;;1.90;99.90;;;;;;6213721;23;20416;-75
2022/04/11 05:37:23;;;;;;;26.07;23.50;;;1.90;99.90;;;;;;6213429;23;20464;-74
2022/04/11 05:39:49;;;;;;;28.73;25.37;;;2.10;99.90;;;;;;6213832;23;20448;-75
2022/04/11 05:42:16;;;;;;;28.93;26.23;;;2.70;99.90;;;;;;6213307;23;20408;-75
2022/04/11 05:44:43;;;;;;;27.80;25.10;;;3.30;99.90;;;;;;6213431;23;20489;-76
2022/04/11 05:47:11;;;;;;;26.33;23.40;;;3.90;99.90;;;;;;6214014;23;20416;-75
2022/04/11 05:49:39;;;;;;;20.30;18.73;;;4.40;99.90;;;;;;6213428;23;20428;-76
2022/04/11 05:52:07;;;;;;;21.33;19.27;;;4.80;99.90;;;;;;6213958;23;20409;-76
2022/04/11 05:54:36;;;;;;;18.93;17.10;;;5.20;99.90;;;;;;6214575;23;20412;-77
2022/04/11 05:57:03;;;;;;;26.67;16.50;;;5.70;99.90;;;;;;6213430;23;20410;-76
2022/04/11 05:59:30;;;;;;;18.07;16.43;;;6.30;99.90;;;;;;6213278;23;20535;-77
2022/04/11 06:01:57;;;;;;;20.00;15.27;;;6.60;99.90;;;;;;6214127;23;20438;-76
2022/04/11 06:04:23;;;;;;;16.87;15.57;;;6.90;99.90;;;;;;6213872;23;20408;-76
2022/04/11 06:06:51;;;;;;;15.73;14.43;;;7.40;99.90;;;;;;6213978;23;20411;-76
2022/04/11 06:09:18;;;;;;;15.67;14.53;;;7.80;99.90;;;;;;6213577;23;20405;-76
2022/04/11 06:11:45;;;;;;;16.07;14.90;;;8.10;99.90;;;;;;6213542;23;20409;-76
2022/04/11 06:14:11;;;;;;;16.53;15.33;;;8.60;99.90;;;;;;6213085;23;20413;-75
2022/04/11 06:16:38;;;;;;;16.90;15.40;;;9.10;99.90;;;;;;6213979;23;20409;-77
2022/04/11 06:19:05;;;;;;;17.50;16.00;;;9.30;99.90;;;;;;6213124;23;20447;-77
2022/04/11 06:21:31;;;;;;;16.77;15.20;;;9.60;99.90;;;;;;6214320;23;20411;-76
2022/04/11 06:23:59;;;;;;;15.93;14.43;;;10.00;99.90;;;;;;6214306;23;20409;-76
2022/04/11 06:26:26;;;;;;;16.80;15.50;;;10.50;99.90;;;;;;6214307;23;20740;-76
2022/04/11 06:28:53;;;;;;;17.30;16.00;;;11.20;99.70;;;;;;6213281;23;20416;-77
2022/04/11 06:31:19;;;;;;;16.40;15.20;;;11.10;99.70;;;;;;6210624;23;20447;-74
2022/04/11 06:33:46;;;;;;;16.20;14.70;;;11.60;99.00;;;;;;6212570;23;20394;-72
2022/04/11 06:36:13;;;;;;;17.52;16.20;;;12.30;99.90;;;;;;6211959;23;20702;-73
2022/04/11 06:38:40;;;;;;;18.10;16.47;;;12.30;96.30;;;;;;6213013;23;20198;-73
2022/04/11 06:41:08;;;;;;;15.40;14.40;;;12.80;95.60;;;;;;6212880;23;20419;-75
2022/04/11 06:43:35;;;;;;;16.63;15.50;;;13.10;94.10;;;;;;6213230;23;20439;-74
2022/04/11 06:46:02;;;;;;;17.47;16.10;;;13.20;93.70;;;;;;6212665;23;20912;-75
2022/04/11 06:48:28;;;;;;;17.70;16.50;;;13.30;92.90;;;;;;6212965;23;20458;-73
2022/04/11 06:50:55;;;;;;;18.77;17.07;;;13.40;92.40;;;;;;6212849;23;20419;-74
2022/04/11 06:53:22;;;;;;;18.70;17.40;;;13.50;92.30;;;;;;6212871;23;20409;-76
2022/04/11 06:55:49;;;;;;;19.00;17.43;;;13.40;91.90;;;;;;6214343;23;20412;-78
2022/04/11 06:58:18;;;;;;;18.30;16.60;;;13.50;92.00;;;;;;6214663;23;20700;-78
2022/04/11 07:00:44;;;;;;;17.73;16.40;;;13.80;91.80;;;;;;6213871;23;20397;-79
2022/04/11 07:03:11;;;;;;;19.07;17.67;;;14.50;91.10;;;;;;6213423;23;20423;-76
2022/04/11 07:05:39;;;;;;;16.97;15.87;;;14.80;89.00;;;;;;6213774;23;20415;-80
2022/04/11 07:08:06;;;;;;;17.23;16.13;;;15.20;86.80;;;;;;6213241;23;20915;-76
2022/04/11 18:22:34;;;;;;;11.57;10.87;;;14.00;60.70;;;;;;6209670;22;20470;-72
2022/04/11 18:25:02;;;;;;;11.80;11.20;;;13.80;61.20;;;;;;6211705;23;20745;-73
2022/04/11 18:27:30;;;;;;;11.23;10.53;;;13.60;61.90;;;;;;6209582;23;20408;-72
2022/04/11 18:32:41;;;;;;;11.30;10.60;;;13.20;63.60;;;;;;6211610;23;20431;-73
2022/04/11 18:35:10;;;;;;;11.70;10.93;;;13.10;64.60;;;;;;6211866;23;20733;-72
2022/04/11 18:37:42;;;;;;;11.63;10.63;;;13.00;65.00;;;;;;6211193;23;20409;-73
2022/04/11 18:40:10;;;;;;;11.47;10.87;;;12.90;66.40;;;;;;6211447;23;20475;-73
2022/04/11 18:42:37;;;;;;;12.03;11.20;;;12.70;66.80;;;;;;6211613;23;20452;-72
2022/04/11 18:45:04;;;;;;;12.03;11.33;;;12.70;68.20;;;;;;6211859;23;20408;-73
2022/04/11 18:47:31;;;;;;;12.27;11.57;;;12.70;68.40;;;;;;6211744;23;20416;-72
2022/04/11 18:49:58;;;;;;;12.37;11.57;;;13.00;68.10;;;;;;6211981;23;20405;-72
2022/04/11 18:52:25;;;;;;;11.57;10.83;;;13.10;68.80;;;;;;6211559;23;20416;-73
2022/04/11 18:54:53;;;;;;;12.43;11.53;;;13.00;69.50;;;;;;6211847;23;20512;-73
2022/04/11 18:57:20;;;;;;;12.60;11.73;;;12.90;70.20;;;;;;6211490;23;21087;-72
2022/04/11 18:59:46;;;;;;;13.23;12.20;;;12.80;71.60;;;;;;6211762;23;20778;-73
2022/04/11 19:02:13;;;;;;;12.80;11.70;;;12.80;71.60;;;;;;6212039;23;20413;-73
2022/04/11 19:04:40;;;;;;;12.20;11.40;;;12.90;72.70;;;;;;6211631;23;20412;-73
2022/04/11 19:07:07;;;;;;;12.20;11.40;;;12.90;73.20;;;;;;6211293;23;20412;-72
2022/04/11 19:09:34;;;;;;;12.73;11.57;;;12.90;73.80;;;;;;6210596;23;20405;-73
2022/04/11 19:12:02;;;;;;;12.17;11.47;;;12.90;74.90;;;;;;6210913;23;20445;-72
2022/04/11 19:14:29;;;;;;;13.17;12.27;;;12.90;74.90;;;;;;6210740;23;20412;-73
2022/04/11 19:16:56;;;;;;;13.77;12.93;;;12.90;75.10;;;;;;6211209;23;20946;-72
2022/04/11 19:19:23;;;;;;;15.07;14.03;;;12.90;75.30;;;;;;6210510;23;20441;-72
2022/04/11 19:21:49;;;;;;;12.87;11.97;;;12.90;75.30;;;;;;6210294;23;20820;-72
2022/04/11 19:24:16;;;;;;;13.80;12.60;;;12.90;75.90;;;;;;6211108;23;20486;-72
2022/04/11 19:26:43;;;;;;;12.53;11.73;;;12.90;76.50;;;;;;6211120;23;20419;-73
2022/04/11 19:29:11;;;;;;;13.23;12.20;;;12.80;77.50;;;;;;6211137;23;20409;-72
2022/04/11 19:31:39;;;;;;;14.33;13.23;;;12.80;78.70;;;;;;6210770;23;20408;-72
2022/04/11 19:34:07;;;;;;;12.60;11.80;;;12.70;79.40;;;;;;6211187;23;20736;-72
2022/04/11 19:36:34;;;;;;;13.30;12.30;;;12.70;80.00;;;;;;6210610;23;20476;-72
2022/04/11 19:39:03;;;;;;;13.80;12.70;;;12.80;80.70;;;;;;6211225;23;20416;-72
2022/04/11 19:41:30;;;;;;;12.93;12.13;;;12.70;81.40;;;;;;6208601;23;20955;-72
2022/04/11 19:43:57;;;;;;;14.53;13.33;;;12.70;81.60;;;;;;6211382;23;20420;-72
2022/04/11 19:46:25;;;;;;;13.67;12.57;;;12.70;82.50;;;;;;6210654;23;20440;-72
2022/04/11 19:51:36;;;;;;;14.30;13.27;;;12.60;84.10;;;;;;6212584;23;20372;-74
2022/04/11 19:54:03;;;;;;;15.33;13.83;;;12.50;85.40;;;;;;6213024;23;20415;-73
2022/04/11 19:56:29;;;;;;;15.07;13.67;;;12.50;86.20;;;;;;6213222;23;20962;-74
2022/04/11 19:58:57;;;;;;;13.53;12.43;;;12.40;87.00;;;;;;6213340;23;20419;-72
2022/04/11 20:01:25;;;;;;;15.00;13.90;;;12.40;87.50;;;;;;6211275;23;20502;-73
2022/04/11 20:03:52;;;;;;;14.10;12.80;;;12.40;88.60;;;;;;6213449;23;20397;-73
2022/04/11 20:06:19;;;;;;;14.73;13.43;;;12.30;89.60;;;;;;6210382;23;20420;-73
2022/04/11 20:08:45;;;;;;;14.53;13.33;;;12.20;90.20;;;;;;6211308;23;20416;-74
2022/04/11 20:11:12;;;;;;;14.60;13.40;;;12.20;90.50;;;;;;6213677;23;20412;-73
2022/04/11 20:13:40;;;;;;;14.90;13.80;;;12.20;90.60;;;;;;6213365;23;20409;-73
2022/04/11 20:16:07;;;;;;;15.27;13.97;;;12.20;90.90;;;;;;6213011;23;20453;-74
2022/04/11 20:18:35;;;;;;;14.07;13.10;;;12.20;91.20;;;;;;6213112;23;20408;-73
2022/04/11 20:21:03;;;;;;;13.53;12.53;;;12.10;91.30;;;;;;6212611;23;20448;-73
2022/04/11 20:23:30;;;;;;;13.60;12.57;;;12.10;91.50;;;;;;6213498;23;20405;-73
2022/04/11 20:25:57;;;;;;;13.60;12.30;;;12.10;91.90;;;;;;6213064;23;20415;-74
2022/04/11 20:28:24;;;;;;;15.80;14.40;;;12.10;92.00;;;;;;6212867;23;20405;-74
2022/04/11 20:30:51;;;;;;;16.77;15.20;;;12.10;92.20;;;;;;6213153;23;21018;-73
2022/04/11 20:33:17;;;;;;;15.13;13.93;;;12.00;92.40;;;;;;6213083;23;20409;-74
2022/04/11 20:35:45;;;;;;;16.07;14.77;;;12.00;92.50;;;;;;6213130;23;20420;-73
2022/04/11 20:38:12;;;;;;;14.00;12.90;;;12.00;92.70;;;;;;6213321;23;20475;-73
2022/04/11 20:40:40;;;;;;;14.13;13.13;;;12.00;92.80;;;;;;6212975;23;20451;-73
2022/04/11 20:43:07;;;;;;;13.90;12.83;;;11.90;93.00;;;;;;6212646;23;20947;-71
2022/04/11 20:45:33;;;;;;;15.70;14.40;;;11.90;93.30;;;;;;6212952;23;20789;-68
2022/04/11 20:48:00;;;;;;;14.43;13.00;;;11.90;93.50;;;;;;6213165;23;20409;-72
2022/04/11 20:50:28;;;;;;;13.80;12.60;;;11.90;93.70;;;;;;6213537;23;20409;-72
2022/04/11 20:52:56;;;;;;;13.93;12.60;;;11.80;93.80;;;;;;6213005;23;20416;-72
2022/04/11 20:55:42;;;;;;;15.60;14.40;;;11.80;93.90;;;;;;6212890;23;20882;-72
2022/04/11 20:58:11;;;;;;;14.83;13.53;;;11.70;94.00;;;;;;6212396;23;20393;-72
2022/04/11 21:00:38;;;;;;;16.33;14.93;;;11.70;94.20;;;;;;6212237;23;20782;-72
2022/04/11 21:03:05;;;;;;;15.30;13.90;;;11.70;94.20;;;;;;6212388;23;20950;-72
2022/04/11 21:05:32;;;;;;;16.37;14.93;;;11.70;94.10;;;;;;6212720;23;20409;-72
2022/04/11 21:08:00;;;;;;;16.30;14.77;;;11.70;94.30;;;;;;6212997;23;20413;-72
2022/04/11 21:10:27;;;;;;;15.43;14.20;;;11.70;94.30;;;;;;6212715;23;20932;-72
2022/04/11 21:12:54;;;;;;;16.17;14.80;;;11.60;94.40;;;;;;6212676;23;20729;-73
2022/04/11 21:15:21;;;;;;;15.70;14.30;;;11.60;94.70;;;;;;6212852;23;20428;-72
2022/04/11 21:17:48;;;;;;;14.50;13.30;;;11.50;95.00;;;;;;6212739;23;20440;-72
2022/04/11 21:20:15;;;;;;;14.80;13.70;;;11.40;95.10;;;;;;6212561;23;20483;-72
2022/04/11 21:22:42;;;;;;;14.13;13.03;;;11.50;95.30;;;;;;6212411;23;20451;-72
2022/04/11 21:25:11;;;;;;;14.67;13.47;;;11.40;95.40;;;;;;6212264;23;20891;-72
2022/04/11 21:27:38;;;;;;;14.83;13.60;;;11.40;95.60;;;;;;6212574;23;20414;-71
2022/04/11 21:30:06;;;;;;;15.00;13.90;;;11.30;95.70;;;;;;6212401;23;20405;-72
2022/04/11 21:32:33;;;;;;;15.27;13.90;;;11.30;95.80;;;;;;6212510;23;20416;-72
2022/04/11 21:35:00;;;;;;;15.50;14.00;;;11.30;96.00;;;;;;6212579;23;20411;-71
2022/04/11 21:37:27;;;;;;;14.47;13.20;;;11.20;96.20;;;;;;6213030;23;20721;-71
2022/04/11 21:39:53;;;;;;;15.03;13.83;;;11.10;96.50;;;;;;6212406;23;20407;-71
2022/04/11 21:42:21;;;;;;;14.50;13.17;;;11.10;96.70;;;;;;6212614;23;20421;-72
2022/04/11 21:44:48;;;;;;;15.17;13.97;;;11.10;96.80;;;;;;6212468;23;20404;-71
2022/04/11 21:47:15;;;;;;;16.00;14.63;;;11.10;96.90;;;;;;6212322;23;20407;-71
2022/04/11 21:49:42;;;;;;;16.30;14.70;;;11.10;97.20;;;;;;6212392;23;20424;-71
2022/04/11 21:52:10;;;;;;;14.50;13.30;;;11.10;97.10;;;;;;6212221;23;20408;-71
2022/04/11 21:54:37;;;;;;;16.57;14.30;;;11.10;97.10;;;;;;6212503;23;20419;-71
2022/04/11 21:57:04;;;;;;;15.80;14.40;;;11.00;97.20;;;;;;6212112;23;21032;-71
